Terminal Aerodrome Forecast
Issued by NWS

Home | Current Version | Previous Version | Text Only | Print | Product List | Glossary On
Versions: 1 2 3 4 5 6 7 8 9 10 11 12 13 14 15 16 17 18
147
FTUS43 KDLH 211138
TAFBRD
TAF
KBRD 211138Z 2112/2212 VRB03KT 5SM BR SKC
     FM211300 VRB03KT P6SM SKC
     FM211700 VRB03KT P6SM FEW050
     FM212000 17007KT P6SM FEW050
     FM220200 15003KT P6SM SKC=

USA.gov is the U.S. government's official web portal to all federal, state and local government web resources and services.